createdAt,value
2022-09-11T00:01:16.287Z,223.97
2022-09-11T00:03:44.602Z,164.83
2022-09-11T00:06:13.146Z,167.40
2022-09-11T00:08:41.440Z,171.63
2022-09-11T00:11:13.613Z,97.97
2022-09-11T00:13:40.637Z,131.57
2022-09-11T00:16:18.886Z,111.43
2022-09-11T00:18:46.742Z,93.00
2022-09-11T00:21:13.243Z,100.03
2022-09-11T00:23:39.804Z,110.47
2022-09-11T00:26:06.581Z,108.93
2022-09-11T00:28:34.371Z,122.87
2022-09-11T00:31:05.158Z,112.83
2022-09-11T00:33:33.388Z,107.53
2022-09-11T00:36:24.319Z,132.37
2022-09-11T00:38:51.248Z,155.77
2022-09-11T00:41:22.691Z,155.43
2022-09-11T00:44:05.125Z,153.57
2022-09-11T00:46:53.267Z,137.60
2022-09-11T00:49:32.520Z,161.60
2022-09-11T00:52:13.634Z,194.37
2022-09-11T00:54:49.500Z,253.27
2022-09-11T00:57:20.596Z,174.60
2022-09-11T00:59:48.255Z,200.00
2022-09-11T01:02:18.943Z,185.87
2022-09-11T01:04:45.667Z,151.33
2022-09-11T01:07:15.323Z,128.33
2022-09-11T01:09:42.793Z,118.47
2022-09-11T01:12:31.020Z,130.20
2022-09-11T01:15:04.036Z,122.63
2022-09-11T01:17:47.870Z,140.93
2022-09-11T01:20:20.372Z,121.03
2022-09-11T01:23:19.399Z,122.23
2022-09-11T01:26:18.853Z,127.57
2022-09-11T01:29:15.882Z,108.47
2022-09-11T01:31:53.506Z,107.03
2022-09-11T01:34:45.006Z,102.33
2022-09-11T01:37:21.721Z,100.30
2022-09-11T01:39:58.796Z,105.30
2022-09-11T01:42:31.383Z,98.57
2022-09-11T01:44:59.390Z,96.57
2022-09-11T01:47:28.319Z,119.00
2022-09-11T01:50:05.811Z,117.53
2022-09-11T01:52:39.681Z,96.97
2022-09-11T01:55:19.006Z,77.50
2022-09-11T01:57:52.213Z,82.27
2022-09-11T02:00:19.702Z,82.57
2022-09-11T02:02:59.454Z,77.57
2022-09-11T02:05:35.463Z,80.20
2022-09-11T02:08:16.534Z,85.23
2022-09-11T02:10:52.083Z,77.07
2022-09-11T02:13:37.222Z,70.13
2022-09-11T02:16:17.390Z,62.23
2022-09-11T02:18:50.122Z,62.60
2022-09-11T02:21:16.622Z,68.93
2022-09-11T02:23:43.248Z,68.33
2022-09-11T02:26:13.499Z,58.20
2022-09-11T02:28:40.449Z,58.33
2022-09-11T02:31:07.745Z,60.67
2022-09-11T02:33:36.934Z,60.23
2022-09-11T02:36:39.355Z,59.90
2022-09-11T02:39:25.507Z,56.30
2022-09-11T02:42:27.201Z,53.10
2022-09-11T02:45:30.201Z,53.50
2022-09-11T02:48:28.222Z,48.00
2022-09-11T02:51:25.859Z,48.50
2022-09-11T02:54:19.499Z,50.50
2022-09-11T02:56:52.432Z,45.50
2022-09-11T02:59:30.070Z,53.53
2022-09-11T03:02:02.103Z,44.33
2022-09-11T03:04:31.231Z,52.77
2022-09-11T03:06:58.895Z,56.83
2022-09-11T03:09:25.555Z,48.87
2022-09-11T03:11:58.272Z,45.13
2022-09-11T03:14:24.786Z,54.00
2022-09-11T03:16:51.402Z,57.10
2022-09-11T03:19:19.551Z,52.33
2022-09-11T03:21:46.067Z,52.50
2022-09-11T03:24:14.429Z,53.27
2022-09-11T03:26:41.461Z,57.63
2022-09-11T03:29:08.903Z,58.77
2022-09-11T03:31:39.080Z,65.20
2022-09-11T03:34:06.544Z,64.67
2022-09-11T03:36:36.979Z,68.73
2022-09-11T03:39:04.970Z,75.30
2022-09-11T03:41:32.463Z,68.20
2022-09-11T03:43:59.753Z,57.90
2022-09-11T03:46:26.306Z,70.83
2022-09-11T03:48:53.244Z,59.27
2022-09-11T03:51:21.176Z,60.13
2022-09-11T03:53:48.575Z,62.00
2022-09-11T03:56:16.019Z,66.23
2022-09-11T03:58:47.578Z,71.50
2022-09-11T04:01:19.369Z,71.53
2022-09-11T04:03:46.459Z,62.70
2022-09-11T04:06:21.651Z,60.77
2022-09-11T04:08:49.770Z,73.90
2022-09-11T04:11:17.005Z,71.47
2022-09-11T04:13:44.424Z,72.40
2022-09-11T04:16:16.771Z,73.93
2022-09-11T04:18:46.625Z,70.37
2022-09-11T04:21:17.276Z,75.90
2022-09-11T04:23:50.392Z,72.57
2022-09-11T04:26:19.687Z,71.97
2022-09-11T04:28:51.271Z,69.33
2022-09-11T04:31:20.099Z,76.97
2022-09-11T04:33:47.938Z,80.80
2022-09-11T04:36:18.001Z,75.00
2022-09-11T04:38:45.880Z,63.67
2022-09-11T04:41:15.026Z,66.07
2022-09-11T04:43:42.360Z,66.30
2022-09-11T04:46:17.292Z,73.07
2022-09-11T04:48:45.703Z,62.97
2022-09-11T04:51:32.094Z,66.07
2022-09-11T04:54:00.450Z,67.37
2022-09-11T04:56:34.841Z,74.17
2022-09-11T04:59:06.545Z,70.53
2022-09-11T05:01:35.706Z,67.60
2022-09-11T05:04:03.122Z,70.57
2022-09-11T05:06:30.675Z,70.33
2022-09-11T05:09:05.243Z,66.50
2022-09-11T05:11:34.655Z,68.63
2022-09-11T05:14:01.669Z,71.43
2022-09-11T05:16:31.218Z,75.27
2022-09-11T05:18:59.019Z,58.27
2022-09-11T05:21:27.329Z,71.77
2022-09-11T05:23:55.935Z,65.40
2022-09-11T05:26:26.603Z,65.80
2022-09-11T05:28:55.895Z,66.90
2022-09-11T05:31:25.432Z,66.40
2022-09-11T05:33:55.850Z,71.60
2022-09-11T05:36:23.634Z,61.80
2022-09-11T05:38:50.249Z,60.90
2022-09-11T05:41:17.382Z,59.93
2022-09-11T05:43:44.315Z,61.87
2022-09-11T05:46:17.278Z,61.00
2022-09-11T05:48:46.212Z,59.03
2022-09-11T05:51:15.847Z,53.53
2022-09-11T05:53:42.891Z,56.53
2022-09-11T05:56:17.658Z,53.23
2022-09-11T05:58:46.592Z,54.20
2022-09-11T06:01:17.185Z,62.70
2022-09-11T06:03:48.438Z,57.97
2022-09-11T06:06:18.036Z,56.67
2022-09-11T06:08:45.658Z,50.47
2022-09-11T06:11:14.214Z,50.83
2022-09-11T06:13:43.211Z,56.43
2022-09-11T06:16:18.417Z,51.20
2022-09-11T06:18:50.443Z,44.07
2022-09-11T06:21:21.940Z,40.63
2022-09-11T06:23:57.774Z,36.90
2022-09-11T06:26:26.091Z,42.20
2022-09-11T06:28:54.523Z,38.87
2022-09-11T06:31:25.972Z,40.47
2022-09-11T06:33:54.335Z,39.27
2022-09-11T06:36:24.185Z,46.23
2022-09-11T06:38:55.854Z,43.47
2022-09-11T06:41:25.546Z,42.10
2022-09-11T06:43:56.462Z,45.80
2022-09-11T06:46:25.268Z,44.40
2022-09-11T06:48:55.709Z,45.40
2022-09-11T06:51:25.638Z,46.67
2022-09-11T06:53:56.121Z,41.03
2022-09-11T06:56:22.733Z,42.10
2022-09-11T06:58:51.083Z,43.70
2022-09-11T07:01:20.382Z,43.20
2022-09-11T07:03:54.520Z,42.90
2022-09-11T07:06:27.186Z,40.27
2022-09-11T07:09:00.807Z,34.90
2022-09-11T07:11:35.107Z,28.60
2022-09-11T07:14:05.762Z,28.50
2022-09-11T07:16:36.527Z,31.77
2022-09-11T07:19:09.184Z,41.53
2022-09-11T07:21:37.152Z,37.17
2022-09-11T07:24:05.065Z,37.10
2022-09-11T07:26:38.788Z,35.80
2022-09-11T07:29:12.850Z,31.50
2022-09-11T07:31:39.474Z,32.10
2022-09-11T07:34:06.749Z,32.50
2022-09-11T07:36:35.078Z,38.10
2022-09-11T07:39:06.142Z,31.67
2022-09-11T07:41:41.428Z,27.70
2022-09-11T07:44:15.229Z,24.67
2022-09-11T07:46:41.826Z,28.60
2022-09-11T07:49:11.241Z,23.90
2022-09-11T07:51:40.710Z,29.90
2022-09-11T07:54:09.757Z,23.60
2022-09-11T07:56:38.081Z,28.07
2022-09-11T07:59:08.582Z,20.83
2022-09-11T08:01:37.785Z,23.33
2022-09-11T08:04:08.017Z,19.30
2022-09-11T08:06:37.450Z,20.93
2022-09-11T08:09:12.325Z,15.87
2022-09-11T08:11:45.791Z,25.23
2022-09-11T08:14:13.723Z,18.20
2022-09-11T08:16:41.842Z,15.90
2022-09-11T08:19:16.550Z,15.40
2022-09-11T08:21:43.578Z,21.00
2022-09-11T08:24:15.090Z,17.63
2022-09-11T08:26:48.137Z,16.80
2022-09-11T08:29:18.171Z,13.60
2022-09-11T08:31:45.884Z,11.57
2022-09-11T08:34:14.118Z,11.93
2022-09-11T08:36:41.487Z,11.77
2022-09-11T08:39:09.710Z,16.43
2022-09-11T08:41:53.661Z,14.40
2022-09-11T08:44:27.450Z,13.40
2022-09-11T08:47:07.622Z,12.43
2022-09-11T08:49:39.741Z,14.93
2022-09-11T08:52:08.691Z,18.80
2022-09-11T08:54:38.128Z,20.10
2022-09-11T08:57:29.477Z,18.30
2022-09-11T09:00:18.687Z,21.00
2022-09-11T09:03:12.431Z,24.60
2022-09-11T09:05:53.521Z,20.90
2022-09-11T09:08:51.023Z,23.17
2022-09-11T09:11:30.361Z,17.23
2022-09-11T09:14:38.038Z,22.87
2022-09-11T09:17:28.836Z,29.40
2022-09-11T09:20:11.066Z,25.03
2022-09-11T09:22:55.013Z,20.53
2022-09-11T09:25:23.861Z,27.40
2022-09-11T09:28:14.684Z,23.90
2022-09-11T09:31:07.316Z,21.10
2022-09-11T09:33:42.137Z,21.70
2022-09-11T09:36:27.055Z,18.27
2022-09-11T09:38:54.603Z,18.03
2022-09-11T09:41:56.781Z,21.40
2022-09-11T09:44:54.949Z,19.40
2022-09-11T09:47:22.325Z,16.57
2022-09-11T09:49:51.543Z,19.50
2022-09-11T09:52:25.399Z,15.53
2022-09-11T09:54:56.760Z,13.07
2022-09-11T09:57:27.187Z,15.40
2022-09-11T10:00:08.774Z,16.80
2022-09-11T10:02:43.189Z,12.47
2022-09-11T10:05:13.437Z,13.23
2022-09-11T10:07:47.389Z,14.87
2022-09-11T10:10:29.889Z,16.03
2022-09-11T10:13:17.994Z,12.00
2022-09-11T10:15:49.449Z,13.40
2022-09-11T10:18:40.170Z,12.00
2022-09-11T10:21:12.345Z,12.23
2022-09-11T10:23:50.468Z,12.40
2022-09-11T10:26:23.406Z,13.77
2022-09-11T10:28:50.625Z,9.90
2022-09-11T10:31:18.582Z,12.27
2022-09-11T10:33:56.420Z,9.77
2022-09-11T10:36:27.104Z,8.90
2022-09-11T10:38:55.268Z,6.77
2022-09-11T10:41:26.043Z,7.70
2022-09-11T10:44:11.316Z,6.43
2022-09-11T10:46:42.358Z,8.33
2022-09-11T10:49:11.746Z,6.07
2022-09-11T10:51:44.330Z,9.37
2022-09-11T10:54:20.118Z,7.07
2022-09-11T10:57:00.206Z,6.30
2022-09-11T10:59:36.491Z,7.03
2022-09-11T11:02:03.920Z,5.67
2022-09-11T11:04:32.232Z,6.17
2022-09-11T11:07:13.384Z,7.63
2022-09-11T11:09:50.721Z,6.47
2022-09-11T11:12:31.882Z,6.90
2022-09-11T11:15:20.060Z,6.87
2022-09-11T11:18:15.982Z,6.87
2022-09-11T11:21:07.567Z,10.73
2022-09-11T11:23:49.554Z,8.17
2022-09-11T11:26:36.684Z,6.27
2022-09-11T11:29:35.492Z,6.10
2022-09-11T11:32:30.274Z,6.20
2022-09-11T11:35:23.666Z,8.80
2022-09-11T11:37:55.821Z,4.87
2022-09-11T11:40:36.866Z,5.40
2022-09-11T11:43:05.349Z,4.93
2022-09-11T11:46:02.344Z,5.77
2022-09-11T11:48:58.713Z,7.17
2022-09-11T11:51:36.095Z,10.37
2022-09-11T11:54:27.561Z,5.87
2022-09-11T11:56:59.879Z,5.07
2022-09-11T11:59:48.812Z,4.13
2022-09-11T12:02:24.428Z,4.60
2022-09-11T12:05:17.074Z,3.47
2022-09-11T12:07:47.278Z,3.90
2022-09-11T12:10:30.030Z,3.20
2022-09-11T12:13:01.375Z,3.77
2022-09-11T12:15:32.259Z,2.37
2022-09-11T12:18:12.079Z,2.80
2022-09-11T12:20:39.090Z,2.97
2022-09-11T12:23:07.672Z,3.20
2022-09-11T12:25:35.431Z,2.83
2022-09-11T12:28:25.571Z,2.40
2022-09-11T12:31:05.119Z,2.43
2022-09-11T12:33:41.050Z,1.67
2022-09-11T12:36:17.448Z,2.07
2022-09-11T12:38:50.102Z,1.40
2022-09-11T12:41:25.458Z,1.30
2022-09-11T12:43:54.960Z,3.40
2022-09-11T12:46:21.848Z,2.17
2022-09-11T12:49:17.837Z,1.40
2022-09-11T12:51:43.487Z,2.40
2022-09-11T12:54:18.928Z,2.00
2022-09-11T12:57:05.537Z,1.73
2022-09-11T12:59:38.490Z,1.60
2022-09-11T13:02:38.805Z,1.83
2022-09-11T13:05:24.766Z,2.00
2022-09-11T13:07:56.637Z,1.80
2022-09-11T13:10:36.407Z,5.07
2022-09-11T13:13:36.932Z,1.60
2022-09-11T13:16:30.989Z,1.50
2022-09-11T13:19:13.354Z,1.70
2022-09-11T13:21:49.320Z,1.30
2022-09-11T13:24:32.108Z,3.27
2022-09-11T13:27:18.830Z,1.83
2022-09-11T13:29:48.454Z,2.20
2022-09-11T13:32:18.037Z,1.20
2022-09-11T13:34:48.928Z,2.70
2022-09-11T13:37:43.278Z,1.70
2022-09-11T13:40:20.741Z,3.90
2022-09-11T13:42:48.847Z,2.80
2022-09-11T13:45:18.936Z,2.40
2022-09-11T13:47:46.134Z,2.10
2022-09-11T13:50:15.798Z,2.87
2022-09-11T13:52:44.575Z,2.10
2022-09-11T13:55:19.031Z,9.90
2022-09-11T13:57:55.165Z,3.60
2022-09-11T14:00:44.766Z,2.40
2022-09-11T14:03:24.386Z,2.23
2022-09-11T14:05:54.261Z,1.97
2022-09-11T14:08:27.289Z,3.90
2022-09-11T14:10:57.834Z,6.33
2022-09-11T14:13:36.156Z,1.50
2022-09-11T14:16:05.917Z,1.60
2022-09-11T14:18:40.995Z,2.40
2022-09-11T14:21:17.855Z,1.53
2022-09-11T14:23:49.733Z,1.77
2022-09-11T14:26:19.419Z,1.53
2022-09-11T14:28:55.775Z,1.47
2022-09-11T14:31:41.478Z,1.30
2022-09-11T14:34:42.005Z,2.20
2022-09-11T14:37:14.503Z,3.73
2022-09-11T14:39:47.772Z,2.63
2022-09-11T14:42:17.580Z,1.30
2022-09-11T14:44:44.432Z,1.80
2022-09-11T14:47:17.466Z,2.57
2022-09-11T14:49:48.043Z,1.53
2022-09-11T14:52:20.495Z,4.40
2022-09-11T14:54:47.852Z,1.33
2022-09-11T14:57:20.630Z,1.17
2022-09-11T14:59:47.781Z,1.53
2022-09-11T15:02:17.689Z,2.30
2022-09-11T15:04:46.146Z,1.33
2022-09-11T15:07:15.135Z,3.07
2022-09-11T15:09:42.597Z,2.63
2022-09-11T15:12:11.201Z,1.60
2022-09-11T15:14:55.862Z,1.50
2022-09-11T15:17:25.130Z,4.60
2022-09-11T15:19:52.907Z,1.13
2022-09-11T15:22:19.578Z,1.20
2022-09-11T15:24:46.988Z,1.10
2022-09-11T15:27:13.803Z,2.03
2022-09-11T15:29:42.702Z,1.23
2022-09-11T15:32:10.294Z,0.97
2022-09-11T15:34:38.529Z,1.00
2022-09-11T15:37:05.406Z,2.83
2022-09-11T15:39:31.993Z,1.40
2022-09-11T15:41:59.134Z,1.27
2022-09-11T15:44:28.549Z,0.80
2022-09-11T15:46:57.536Z,0.90
2022-09-11T15:49:28.669Z,2.50
2022-09-11T15:51:55.739Z,1.47
2022-09-11T15:54:25.107Z,1.20
2022-09-11T15:56:53.375Z,2.83
2022-09-11T15:59:20.101Z,1.00
2022-09-11T16:01:46.668Z,1.00
2022-09-11T16:04:20.101Z,2.73
2022-09-11T16:06:48.350Z,2.20
2022-09-11T16:09:18.455Z,0.90
2022-09-11T16:11:47.717Z,0.90
2022-09-11T16:14:17.708Z,1.20
2022-09-11T16:16:47.049Z,0.70
2022-09-11T16:19:15.258Z,2.93
2022-09-11T16:21:41.938Z,0.80
2022-09-11T16:24:09.879Z,1.00
2022-09-11T16:26:38.178Z,0.90
2022-09-11T16:29:08.800Z,0.77
2022-09-11T16:31:35.541Z,3.33
2022-09-11T16:34:04.136Z,0.70
2022-09-11T16:36:38.181Z,1.00
2022-09-11T16:39:11.754Z,3.53
2022-09-11T16:41:38.602Z,2.73
2022-09-11T16:44:07.224Z,3.43
2022-09-11T16:46:33.826Z,0.77
2022-09-11T16:49:02.171Z,0.70
2022-09-11T16:51:29.654Z,0.80
2022-09-11T16:53:56.872Z,2.00
2022-09-11T16:56:25.719Z,2.47
2022-09-11T16:58:52.537Z,0.80
2022-09-11T17:01:23.350Z,6.90
2022-09-11T17:03:51.716Z,1.17
2022-09-11T17:06:20.685Z,1.47
2022-09-11T17:08:50.615Z,1.43
2022-09-11T17:11:19.058Z,0.90
2022-09-11T17:13:46.556Z,3.60
2022-09-11T17:16:18.862Z,0.67
2022-09-11T17:18:50.432Z,0.90
2022-09-11T17:21:17.313Z,0.80
2022-09-11T17:23:44.138Z,2.83
2022-09-11T17:26:13.027Z,0.70
2022-09-11T17:28:40.991Z,0.87
2022-09-11T17:31:10.773Z,0.93
2022-09-11T17:33:40.114Z,0.83
2022-09-11T17:36:08.419Z,1.67
2022-09-11T17:38:35.374Z,1.00
2022-09-11T17:41:04.798Z,1.53
2022-09-11T17:43:33.188Z,0.80
2022-09-11T17:46:01.299Z,2.40
2022-09-11T17:48:28.005Z,0.90
2022-09-11T17:51:06.095Z,0.87
2022-09-11T17:53:38.485Z,0.70
2022-09-11T17:56:09.637Z,1.80
2022-09-11T17:58:37.528Z,0.87
2022-09-11T18:01:06.060Z,2.30
2022-09-11T18:03:34.260Z,4.77
2022-09-11T18:06:02.788Z,2.13
2022-09-11T18:08:31.162Z,2.97
2022-09-11T18:11:00.585Z,0.77
2022-09-11T18:13:28.946Z,1.43
2022-09-11T18:15:56.204Z,0.80
2022-09-11T18:18:23.681Z,5.03
2022-09-11T18:20:53.913Z,0.90
2022-09-11T18:23:23.174Z,1.10
2022-09-11T18:25:51.403Z,9.07
2022-09-11T18:28:20.047Z,1.23
2022-09-11T18:30:47.349Z,1.20
2022-09-11T18:33:16.636Z,0.90
2022-09-11T18:35:44.136Z,0.87
2022-09-11T18:38:10.995Z,3.70
2022-09-11T18:40:37.612Z,3.57
2022-09-11T18:43:06.209Z,4.50
2022-09-11T18:45:35.463Z,3.40
2022-09-11T18:48:03.854Z,3.13
2022-09-11T18:50:30.442Z,1.73
2022-09-11T18:52:57.035Z,1.20
2022-09-11T18:55:23.653Z,2.70
2022-09-11T18:57:50.822Z,1.10
2022-09-11T19:00:18.113Z,1.93
2022-09-11T19:02:46.682Z,1.40
2022-09-11T19:05:15.499Z,1.27
2022-09-11T19:07:43.807Z,1.00
2022-09-11T19:10:11.597Z,2.60
2022-09-11T19:12:39.389Z,1.40
2022-09-11T19:15:07.608Z,1.40
2022-09-11T19:17:35.906Z,2.53
2022-09-11T19:20:09.598Z,2.80
2022-09-11T19:22:36.224Z,1.40
2022-09-11T19:25:03.463Z,3.70
2022-09-11T19:27:31.649Z,1.40
2022-09-11T19:30:00.254Z,1.30
2022-09-11T19:32:28.061Z,2.50
2022-09-11T19:34:55.061Z,1.50
2022-09-11T19:37:21.566Z,1.73
2022-09-11T19:39:50.717Z,1.43
2022-09-11T19:42:17.806Z,1.47
2022-09-11T19:44:44.357Z,7.43
2022-09-11T19:47:11.313Z,1.30
2022-09-11T19:49:37.805Z,3.20
2022-09-11T19:52:04.371Z,3.20
2022-09-11T19:54:30.910Z,2.07
2022-09-11T19:56:57.632Z,2.13
2022-09-11T19:59:24.201Z,1.63
2022-09-11T20:01:50.774Z,2.70
2022-09-11T20:04:19.052Z,1.90
2022-09-11T20:09:30.579Z,1.40
2022-09-11T20:11:58.012Z,1.93
2022-09-11T20:14:24.509Z,2.10
2022-09-11T20:16:51.277Z,1.63
2022-09-11T20:19:17.856Z,1.33
2022-09-11T20:21:44.389Z,2.00
2022-09-11T20:24:10.880Z,1.50
2022-09-11T20:26:37.526Z,1.30
2022-09-11T20:29:07.176Z,1.33
2022-09-11T20:31:40.640Z,1.07
2022-09-11T20:34:12.920Z,1.90
2022-09-11T20:36:39.434Z,2.60
2022-09-11T20:39:06.079Z,1.27
2022-09-11T20:41:33.360Z,1.20
2022-09-11T20:44:03.532Z,3.23
2022-09-11T20:46:30.100Z,1.27
2022-09-11T20:48:56.709Z,9.63
2022-09-11T20:51:23.704Z,1.10
2022-09-11T20:53:50.559Z,1.10
2022-09-11T20:56:20.633Z,1.60
2022-09-11T20:58:47.426Z,1.53
2022-09-11T21:01:16.921Z,1.40
2022-09-11T21:03:45.885Z,1.20
2022-09-11T21:06:12.511Z,2.53
2022-09-11T21:08:40.265Z,2.20
2022-09-11T21:11:07.427Z,1.20
2022-09-11T21:13:38.357Z,1.60
2022-09-11T21:16:13.198Z,1.50
2022-09-11T21:18:44.138Z,2.20
2022-09-11T21:21:10.657Z,1.10
2022-09-11T21:23:37.211Z,1.30
2022-09-11T21:26:07.621Z,1.40
2022-09-11T21:28:34.566Z,1.47
2022-09-11T21:31:01.130Z,1.10
2022-09-11T21:33:27.978Z,1.50
2022-09-11T21:35:55.287Z,4.53
2022-09-11T21:38:30.225Z,1.33
2022-09-11T21:40:58.673Z,1.20
2022-09-11T21:43:26.108Z,1.33
2022-09-11T21:45:52.914Z,2.07
2022-09-11T21:48:19.842Z,1.07
2022-09-11T21:50:46.580Z,1.40
2022-09-11T21:53:13.196Z,4.40
2022-09-11T21:55:41.258Z,3.97
2022-09-11T21:58:08.987Z,2.97
2022-09-11T22:00:42.071Z,10.03
2022-09-11T22:03:11.175Z,1.40
2022-09-11T22:05:45.002Z,1.47
2022-09-11T22:08:13.371Z,1.50
2022-09-11T22:10:47.450Z,1.47
2022-09-11T22:13:14.938Z,1.50
2022-09-11T22:15:42.589Z,1.50
2022-09-11T22:18:09.532Z,1.73
2022-09-11T22:20:37.101Z,1.43
2022-09-11T22:23:03.809Z,3.93
2022-09-11T22:25:30.364Z,2.63
2022-09-11T22:27:57.486Z,1.57
2022-09-11T22:30:24.005Z,1.80
2022-09-11T22:32:50.750Z,1.70
2022-09-11T22:35:17.756Z,9.53
2022-09-11T22:37:44.250Z,4.63
2022-09-11T22:40:11.367Z,1.60
2022-09-11T22:42:38.694Z,1.70
2022-09-11T22:45:08.947Z,1.50
2022-09-11T22:47:35.605Z,1.67
2022-09-11T22:50:02.098Z,1.30
2022-09-11T22:52:29.131Z,2.40
2022-09-11T22:54:55.822Z,2.90
2022-09-11T22:57:22.700Z,1.47
2022-09-11T22:59:49.214Z,3.53
2022-09-11T23:02:15.909Z,2.17
2022-09-11T23:05:02.444Z,8.03
2022-09-11T23:07:29.166Z,1.60
2022-09-11T23:09:55.816Z,1.30
2022-09-11T23:12:22.562Z,2.63
2022-09-11T23:14:49.353Z,1.60
2022-09-11T23:17:16.338Z,1.37
2022-09-11T23:19:43.273Z,1.77
2022-09-11T23:22:09.782Z,1.23
2022-09-11T23:24:36.279Z,1.80
2022-09-11T23:27:02.795Z,1.53
2022-09-11T23:29:29.405Z,2.30
2022-09-11T23:31:56.568Z,3.53
2022-09-11T23:34:23.102Z,7.13
2022-09-11T23:36:49.632Z,1.60
2022-09-11T23:39:16.534Z,2.13
2022-09-11T23:41:43.058Z,1.33
2022-09-11T23:44:10.477Z,1.87
2022-09-11T23:46:38.036Z,3.37
2022-09-11T23:49:06.219Z,2.30
2022-09-11T23:51:32.782Z,1.40
2022-09-11T23:53:59.291Z,1.50
2022-09-11T23:56:25.798Z,1.50
2022-09-11T23:58:52.276Z,1.50
